Aérodrome :
LOGIN :

S'inscrire | Disclaimer

   EN    FR    IT 

 










Légende :    VFR   VFR Marginal   IFR   IFR Intensif   IFR Très Intensif
Visi : 
Plafond : 
>= 8 km
>= 3000ft
5 à 8 km
1000 à 3000 ft
1500m à 5 km
500 à 1000 ft
800 à 1500m
200 à 500 ft
< 800m
< 200 ft
Symboles :   Orages  Brouillard  Fortes neiges  Fortes précipitations  Vent > 20 kt
SIGMETs :   Divers  Orages  Givrage  Turbulence  Onde Orograph.  Cendres Volcan.






- Altitude de l'aérodrome : 157 ft
- Code IATA : LIL


LFQQ - Lille Lesquin

DERNIER METAR :
  • 170400Z AUTO 20011KT 9999 SCT010/// BKN015/// BKN020/// ///TCU 10/09 Q1000 TEMPO 20015G25KT 3000 SHRA BKN008 BKN015CB

METARs EXPIRÉS :
  • 170330Z AUTO 20013KT 9999 -RA BKN011/// BKN019/// OVC025/// ///CB 10/09 Q1000 TEMPO 20015G25KT 3000 SHRA BKN008 BKN015CB
  • 170300Z AUTO 20014KT 9999 -RADZ BKN013/// BKN019/// OVC032/// ///TCU 10/09 Q1000 TEMPO 20015G25KT 3000 SHRA BKN008 BKN015CB
  • 170230Z AUTO 19013KT 9999 BKN015/// BKN026/// BKN038/// ///CB 10/09 Q0999 TEMPO 20015G25KT 3000 SHRA BKN008 BKN015CB
  • 170200Z AUTO 19013KT 9999 BKN017/// OVC023/// ///CB 11/09 Q0999 TEMPO 20015G25KT 3000 SHRA BKN008 BKN015CB
  • 170130Z AUTO 19012KT 9999 BKN019/// BKN032/// BKN048/// ///TCU 11/09 Q0999 TEMPO 20015G25KT 3000 SHRA BKN008 BKN015CB

TAF TAF LFQQ
Valide du 17 à 00h jusqu'au 18 à 06h UTC


162300Z 1700/1806 20012KT 9999 BKN040
TEMPO 1700/1708 20015G25KT 3000 SHRA BKN008 BKN015CB
PROB30
TEMPO 1700/1718 TSRA
BECMG 1708/1710 26013KT
TEMPO 1708/1718 26015G25KT 3000 SHRA BKN020CB
TEMPO 1723/1806 3000 SHRA BKN013 BKN030CB
ATIS : +33 3 20 16 19 54



MET'MAP, la Météo Aéronautique d'un coup d'oeil ! - Copyright ORBIFLY Décembre 2007 - Disclaimer

ORBIFLY MET'MAP TEAM :

Programmation & Développement : Alexandra Zaïnal
Sur une idée originale de : Baudouin d'Aumeries
Assistance à la programmation : Marc-Olivier Méhu
Soutien technique & logistique : Manuel Goepfert

Contact : metmap@orbifly.com




SOURCES & CREDITS :

   NOAA